Federal Rideau — VRWG7 — position and weather

sailwx.info

Track history (hours):
 
Tides and Currents Weather Stations Pressure Air Temp Water Temp Dewpoint Dewpoint Depression Visibility Wind Speed Wind Dir Waves Ship Positions

Federal Rideau

Last reported at 2014-Aug-03 22:18 UTC. Time now 2014-Aug-23 19:19 UTC.
Position N 46°41' W 071°51'.
Warning: this ship's position is 19 days out of date.

Length 200 m; draft 8.3 m.

Type: Cargo ship. MMSI: 477734000.

Date/timePositionNaut miles runAvg speedWind from/ knotsBaromVisibWave heightAir tempDewpointWater temp
2014-Aug-03 22:18N 46°41' W 071°51'1214.6
2014-Aug-03 21:28N 46°34' W 072°05'1212.7
2014-Aug-03 20:33N 46°26' W 072°18'1312.9
2014-Aug-03 19:33N 46°19' W 072°33'1211.8
2014-Aug-03 18:33N 46°13' W 072°48'1413.2
2014-Aug-03 17:31N 46°04' W 073°03'35 5.8
2014-Aug-03 11:29N 45°35' W 073°30'0 0.0
2014-Aug-03 10:32N 45°35' W 073°30'0 0.0
2014-Aug-03 09:32N 45°35' W 073°30'0 0.0
2014-Aug-03 08:32N 45°35' W 073°30'0 0.0
2014-Aug-03 07:32N 45°35' W 073°30'0 0.0
2014-Aug-03 06:32N 45°35' W 073°30'0 0.0
2014-Aug-03 05:32N 45°35' W 073°30'0 0.0
2014-Aug-03 04:32N 45°35' W 073°30'0 0.0
2014-Aug-03 03:32N 45°35' W 073°30'0 0.0
2014-Aug-03 02:32N 45°35' W 073°30'0 0.0
2014-Aug-03 01:34N 45°35' W 073°30'5 4.6
2014-Aug-03 00:34N 45°30' W 073°31'1 1.3
2014-Aug-02 23:34N 45°29' W 073°31'5 4.6
2014-Aug-02 22:34N 45°24' W 073°32'2 1.9
2014-Aug-02 21:34N 45°24' W 073°35'5 4.6
2014-Aug-02 20:34N 45°25' W 073°42'10 9.6
2014-Aug-02 19:34N 45°20' W 073°54'2 2.4
2014-Aug-02 18:33N 45°18' W 073°56'0 0.5
2014-Aug-02 17:33N 45°18' W 073°56'1 1.4
2014-Aug-02 16:33N 45°17' W 073°57'4 4.1
2014-Aug-02 15:33N 45°14' W 074°01'8 8.4
2014-Aug-02 14:33N 45°14' W 074°13'1312.6
2014-Aug-02 13:34N 45°07' W 074°28'1010.2
2014-Aug-02 12:34N 45°01' W 074°39'81 7.3
2014-Aug-02 01:25N 44°13' W 076°12'9 9.9
2014-Aug-02 00:33N 44°08' W 076°21'1312.7
2014-Aug-01 23:33N 43°58' W 076°32'155 5.9
2014-Jul-31 21:15N 42°39' W 079°35'  
2014-Jul-26 09:33N 45°59' W 083°54'3 3.1
2014-Jul-26 08:33N 46°02' W 083°52'0 0.0
2014-Jul-26 07:33N 46°02' W 083°52'1 1.0
2014-Jul-26 06:26N 46°03' W 083°53'8 8.6
2014-Jul-26 05:33N 46°08' W 084°01'9 9.0
2014-Jul-26 04:33N 46°14' W 084°10'7 6.8
2014-Jul-26 03:33N 46°20' W 084°13'15 3.7
2014-Jul-25 23:28N 46°27' W 084°33'7 0.6
2014-Jul-25 12:33N 46°33' W 084°38'1211.8
2014-Jul-25 11:33N 46°41' W 084°50'  
Track history (hours):
 
Tides and Currents Weather Stations Pressure Air Temp Water Temp Dewpoint Dewpoint Depression Visibility Wind Speed Wind Dir Waves Ship Positions

Federal Rideau

Last reported at 2014-Aug-03 22:18 UTC. Time now 2014-Aug-23 19:19 UTC.
Position N 46°41' W 071°51'.
Warning: this ship's position is 19 days out of date.

Length 200 m; draft 8.3 m.

Type: Cargo ship. MMSI: 477734000.

Date/timePositionNaut miles runAvg speedWind from/ knotsBaromVisibWave heightAir tempDewpointWater temp
2014-Aug-03 22:18N 46°41' W 071°51'1214.6
2014-Aug-03 21:28N 46°34' W 072°05'1212.7
2014-Aug-03 20:33N 46°26' W 072°18'1312.9
2014-Aug-03 19:33N 46°19' W 072°33'1211.8
2014-Aug-03 18:33N 46°13' W 072°48'1413.2
2014-Aug-03 17:31N 46°04' W 073°03'35 5.8
2014-Aug-03 11:29N 45°35' W 073°30'0 0.0
2014-Aug-03 10:32N 45°35' W 073°30'0 0.0
2014-Aug-03 09:32N 45°35' W 073°30'0 0.0
2014-Aug-03 08:32N 45°35' W 073°30'0 0.0
2014-Aug-03 07:32N 45°35' W 073°30'0 0.0
2014-Aug-03 06:32N 45°35' W 073°30'0 0.0
2014-Aug-03 05:32N 45°35' W 073°30'0 0.0
2014-Aug-03 04:32N 45°35' W 073°30'0 0.0
2014-Aug-03 03:32N 45°35' W 073°30'0 0.0
2014-Aug-03 02:32N 45°35' W 073°30'0 0.0
2014-Aug-03 01:34N 45°35' W 073°30'5 4.6
2014-Aug-03 00:34N 45°30' W 073°31'1 1.3
2014-Aug-02 23:34N 45°29' W 073°31'5 4.6
2014-Aug-02 22:34N 45°24' W 073°32'2 1.9
2014-Aug-02 21:34N 45°24' W 073°35'5 4.6
2014-Aug-02 20:34N 45°25' W 073°42'10 9.6
2014-Aug-02 19:34N 45°20' W 073°54'2 2.4
2014-Aug-02 18:33N 45°18' W 073°56'0 0.5
2014-Aug-02 17:33N 45°18' W 073°56'1 1.4
2014-Aug-02 16:33N 45°17' W 073°57'4 4.1
2014-Aug-02 15:33N 45°14' W 074°01'8 8.4
2014-Aug-02 14:33N 45°14' W 074°13'1312.6
2014-Aug-02 13:34N 45°07' W 074°28'1010.2
2014-Aug-02 12:34N 45°01' W 074°39'81 7.3
2014-Aug-02 01:25N 44°13' W 076°12'9 9.9
2014-Aug-02 00:33N 44°08' W 076°21'1312.7
2014-Aug-01 23:33N 43°58' W 076°32'155 5.9
2014-Jul-31 21:15N 42°39' W 079°35'  
2014-Jul-26 09:33N 45°59' W 083°54'3 3.1
2014-Jul-26 08:33N 46°02' W 083°52'0 0.0
2014-Jul-26 07:33N 46°02' W 083°52'1 1.0
2014-Jul-26 06:26N 46°03' W 083°53'8 8.6
2014-Jul-26 05:33N 46°08' W 084°01'9 9.0
2014-Jul-26 04:33N 46°14' W 084°10'7 6.8
2014-Jul-26 03:33N 46°20' W 084°13'15 3.7
2014-Jul-25 23:28N 46°27' W 084°33'7 0.6
2014-Jul-25 12:33N 46°33' W 084°38'1211.8
2014-Jul-25 11:33N 46°41' W 084°50'  

Dump ship's entire track history